createdAt,value
2023-03-15T00:00:13.528Z,90.99
2023-03-15T00:02:42.629Z,91.33
2023-03-15T00:05:16.540Z,92.30
2023-03-15T00:07:44.839Z,93.02
2023-03-15T00:10:13.355Z,93.27
2023-03-15T00:12:43.674Z,93.65
2023-03-15T00:15:15.882Z,93.75
2023-03-15T00:17:45.857Z,93.75
2023-03-15T00:20:18.575Z,92.95
2023-03-15T00:22:47.123Z,91.91
2023-03-15T00:25:15.451Z,92.18
2023-03-15T00:27:43.798Z,92.18
2023-03-15T00:30:12.610Z,91.65
2023-03-15T00:32:40.987Z,92.26
2023-03-15T00:35:11.100Z,91.89
2023-03-15T00:37:39.826Z,91.80
2023-03-15T00:40:08.765Z,91.97
2023-03-15T00:42:37.094Z,91.76
2023-03-15T00:45:06.317Z,91.22
2023-03-15T00:47:34.671Z,90.65
2023-03-15T00:50:03.002Z,90.72
2023-03-15T00:52:36.955Z,90.63
2023-03-15T00:55:06.069Z,90.22
2023-03-15T00:57:37.717Z,89.15
2023-03-15T01:00:06.864Z,84.10
2023-03-15T01:02:35.215Z,85.50
2023-03-15T01:05:03.542Z,85.54
2023-03-15T01:07:34.491Z,84.79
2023-03-15T01:10:07.861Z,82.87
2023-03-15T01:12:36.856Z,82.98
2023-03-15T01:15:07.775Z,81.51
2023-03-15T01:17:36.253Z,81.53
2023-03-15T01:20:06.450Z,82.11
2023-03-15T01:22:34.982Z,80.78
2023-03-15T01:25:03.348Z,82.11
2023-03-15T01:27:31.676Z,80.78
2023-03-15T01:30:00.037Z,80.08
2023-03-15T01:32:29.085Z,79.90
2023-03-15T01:34:58.239Z,78.63
2023-03-15T01:37:27.572Z,76.99
2023-03-15T01:39:55.911Z,76.96
2023-03-15T01:42:24.326Z,77.74
2023-03-15T01:45:01.000Z,76.44
2023-03-15T01:47:29.902Z,76.30
2023-03-15T01:50:12.408Z,76.02
2023-03-15T01:52:43.989Z,75.40
2023-03-15T01:55:17.899Z,75.67
2023-03-15T01:57:53.380Z,75.34
2023-03-15T02:00:22.429Z,74.56
2023-03-15T02:03:02.020Z,73.43
2023-03-15T02:05:36.661Z,73.63
2023-03-15T02:08:08.573Z,72.45
2023-03-15T02:10:44.956Z,72.53
2023-03-15T02:13:18.225Z,72.48
2023-03-15T02:15:50.370Z,71.15
2023-03-15T02:18:18.780Z,70.56
2023-03-15T02:21:05.481Z,69.99
2023-03-15T02:23:34.150Z,69.58
2023-03-15T02:26:28.715Z,70.08
2023-03-15T02:28:57.418Z,67.88
2023-03-15T02:31:25.881Z,67.97
2023-03-15T02:33:58.765Z,66.38
2023-03-15T02:36:32.933Z,68.62
2023-03-15T02:39:02.146Z,69.02
2023-03-15T02:41:40.187Z,68.35
2023-03-15T02:44:17.806Z,68.11
2023-03-15T02:46:49.388Z,68.22
2023-03-15T02:49:20.049Z,68.84
2023-03-15T02:51:48.377Z,66.92
2023-03-15T02:54:16.782Z,68.69
2023-03-15T02:56:45.131Z,67.17
2023-03-15T02:59:13.774Z,66.52
2023-03-15T03:01:42.306Z,68.03
2023-03-15T03:04:10.956Z,66.78
2023-03-15T03:06:39.453Z,68.53
2023-03-15T03:09:07.899Z,68.17
2023-03-15T03:11:36.230Z,67.44
2023-03-15T03:14:04.999Z,65.30
2023-03-15T03:16:33.447Z,66.58
2023-03-15T03:19:02.720Z,64.27
2023-03-15T03:21:31.084Z,66.10
2023-03-15T03:23:59.395Z,64.98
2023-03-15T03:26:29.103Z,62.45
2023-03-15T03:28:57.507Z,60.87
2023-03-15T03:31:27.879Z,61.69
2023-03-15T03:33:58.126Z,63.16
2023-03-15T03:36:27.145Z,62.36
2023-03-15T03:38:55.652Z,64.25
2023-03-15T03:41:24.248Z,61.92
2023-03-15T03:43:52.588Z,64.29
2023-03-15T03:46:21.280Z,58.46
2023-03-15T03:48:49.668Z,58.46
2023-03-15T03:51:18.044Z,58.79
2023-03-15T03:53:46.379Z,60.69
2023-03-15T03:56:14.710Z,61.55
2023-03-15T03:58:43.072Z,62.65
2023-03-15T04:01:12.636Z,58.98
2023-03-15T04:03:40.991Z,59.40
2023-03-15T04:06:09.759Z,59.84
2023-03-15T04:08:39.265Z,57.10
2023-03-15T04:11:08.076Z,59.90
2023-03-15T04:13:36.437Z,56.61
2023-03-15T04:16:04.828Z,61.47
2023-03-15T04:18:33.186Z,57.42
2023-03-15T04:21:01.536Z,56.55
2023-03-15T04:23:29.878Z,56.45
2023-03-15T04:25:59.111Z,57.37
2023-03-15T04:28:27.436Z,54.59
2023-03-15T04:30:59.674Z,53.19
2023-03-15T04:33:28.088Z,57.88
2023-03-15T04:35:56.561Z,59.72
2023-03-15T04:38:27.760Z,56.74
2023-03-15T04:40:56.319Z,53.62
2023-03-15T04:43:25.339Z,55.20
2023-03-15T04:45:53.724Z,52.76
2023-03-15T04:48:22.052Z,57.14
2023-03-15T04:50:50.414Z,55.24
2023-03-15T04:53:18.717Z,54.35
2023-03-15T04:55:47.189Z,55.29
2023-03-15T04:58:15.640Z,51.62
2023-03-15T05:00:44.176Z,56.34
2023-03-15T05:03:12.841Z,56.58
2023-03-15T05:05:41.174Z,51.82
2023-03-15T05:08:09.766Z,53.54
2023-03-15T05:10:38.235Z,53.14
2023-03-15T05:13:06.567Z,53.03
2023-03-15T05:15:34.920Z,54.72
2023-03-15T05:18:03.310Z,50.14
2023-03-15T05:20:31.684Z,54.62
2023-03-15T05:23:00.784Z,53.99
2023-03-15T05:25:29.116Z,55.29
2023-03-15T05:27:57.671Z,52.40
2023-03-15T05:30:26.025Z,54.74
2023-03-15T05:32:54.373Z,53.39
2023-03-15T05:35:25.002Z,53.41
2023-03-15T05:37:53.949Z,50.46
2023-03-15T05:40:22.366Z,49.99
2023-03-15T05:42:50.676Z,51.16
2023-03-15T05:45:19.048Z,52.97
2023-03-15T05:47:47.348Z,51.22
2023-03-15T05:50:15.680Z,51.73
2023-03-15T05:52:44.279Z,51.73
2023-03-15T05:55:12.601Z,50.77
2023-03-15T05:57:41.200Z,51.90
2023-03-15T06:00:10.992Z,51.16
2023-03-15T06:02:39.314Z,50.68
2023-03-15T06:05:08.099Z,47.74
2023-03-15T06:07:36.409Z,47.32
2023-03-15T06:10:05.303Z,48.50
2023-03-15T06:12:33.725Z,48.19
2023-03-15T06:15:02.038Z,50.74
2023-03-15T06:17:30.352Z,50.95
2023-03-15T06:19:58.714Z,51.89
2023-03-15T06:22:27.005Z,51.17
2023-03-15T06:24:55.404Z,49.92
2023-03-15T06:27:23.763Z,46.34
2023-03-15T06:29:52.196Z,47.23
2023-03-15T06:32:20.644Z,48.44
2023-03-15T06:34:48.979Z,50.22
2023-03-15T06:37:28.967Z,47.66
2023-03-15T06:40:01.472Z,47.10
2023-03-15T06:42:29.782Z,49.17
2023-03-15T06:44:58.168Z,48.77
2023-03-15T06:47:26.598Z,45.86
2023-03-15T06:49:56.766Z,46.65
2023-03-15T06:52:25.549Z,46.60
2023-03-15T06:54:54.076Z,47.66
2023-03-15T06:57:22.403Z,46.56
2023-03-15T06:59:50.924Z,46.70
2023-03-15T07:02:25.476Z,46.00
2023-03-15T07:04:54.025Z,48.85
2023-03-15T07:07:22.442Z,47.37
2023-03-15T07:09:50.756Z,48.37
2023-03-15T07:12:19.077Z,44.98
2023-03-15T07:14:47.640Z,46.34
2023-03-15T07:17:15.924Z,45.99
2023-03-15T07:19:55.416Z,45.68
2023-03-15T07:22:25.251Z,44.09
2023-03-15T07:24:53.773Z,44.58
2023-03-15T07:27:22.110Z,46.40
2023-03-15T07:29:50.556Z,48.37
2023-03-15T07:32:19.055Z,45.95
2023-03-15T07:34:47.455Z,48.50
2023-03-15T07:37:15.830Z,47.38
2023-03-15T07:39:44.299Z,44.39
2023-03-15T07:42:12.834Z,44.42
2023-03-15T07:44:41.150Z,44.06
2023-03-15T07:47:09.620Z,42.96
2023-03-15T07:49:37.939Z,46.12
2023-03-15T07:52:06.421Z,46.86
2023-03-15T07:54:35.370Z,46.58
2023-03-15T07:57:03.716Z,43.19
2023-03-15T07:59:32.574Z,43.04
2023-03-15T08:02:02.795Z,45.07
2023-03-15T08:04:31.751Z,44.16
2023-03-15T08:07:00.156Z,45.95
2023-03-15T08:09:28.581Z,45.64
2023-03-15T08:11:56.902Z,45.48
2023-03-15T08:14:25.582Z,44.01
2023-03-15T08:16:53.995Z,44.77
2023-03-15T08:19:23.180Z,44.39
2023-03-15T08:21:54.736Z,43.69
2023-03-15T08:24:23.164Z,43.08
2023-03-15T08:26:52.145Z,44.67
2023-03-15T08:29:20.479Z,44.48
2023-03-15T08:31:49.106Z,42.06
2023-03-15T08:34:17.512Z,44.28
2023-03-15T08:36:48.589Z,46.09
2023-03-15T08:39:16.974Z,44.38
2023-03-15T08:41:46.528Z,45.86
2023-03-15T08:44:14.942Z,49.39
2023-03-15T08:46:43.291Z,46.50
2023-03-15T08:49:11.733Z,45.45
2023-03-15T08:51:40.114Z,46.63
2023-03-15T08:54:08.483Z,45.34
2023-03-15T08:56:37.045Z,45.28
2023-03-15T08:59:06.130Z,46.01
2023-03-15T09:01:35.772Z,44.15
2023-03-15T09:04:05.207Z,44.13
2023-03-15T09:06:33.587Z,45.35
2023-03-15T09:09:02.031Z,45.70
2023-03-15T09:11:30.351Z,46.10
2023-03-15T09:13:58.663Z,46.39
2023-03-15T09:16:27.518Z,47.16
2023-03-15T09:18:55.858Z,46.34
2023-03-15T09:21:25.693Z,45.31
2023-03-15T09:23:54.191Z,46.65
2023-03-15T09:26:22.883Z,46.86
2023-03-15T09:28:51.411Z,46.82
2023-03-15T09:31:20.171Z,47.79
2023-03-15T09:33:48.603Z,48.19
2023-03-15T09:36:16.986Z,46.63
2023-03-15T09:38:45.999Z,46.69
2023-03-15T09:41:45.011Z,46.24
2023-03-15T09:44:25.113Z,45.83
2023-03-15T09:47:19.740Z,46.68
2023-03-15T09:49:58.606Z,49.40
2023-03-15T09:53:04.161Z,48.90
2023-03-15T09:55:32.529Z,48.66
2023-03-15T09:58:06.332Z,48.13
2023-03-15T10:00:42.680Z,49.05
2023-03-15T10:03:22.740Z,48.90
2023-03-15T10:05:57.823Z,49.56
2023-03-15T10:08:26.657Z,50.34
2023-03-15T10:11:24.770Z,51.21
2023-03-15T10:14:17.675Z,52.43
2023-03-15T10:16:49.138Z,53.84
2023-03-15T10:19:35.414Z,53.41
2023-03-15T10:22:29.780Z,53.04
2023-03-15T10:25:05.040Z,52.60
2023-03-15T10:27:47.208Z,52.03
2023-03-15T10:30:27.950Z,52.82
2023-03-15T10:33:01.640Z,53.12
2023-03-15T10:35:30.506Z,53.80
2023-03-15T10:37:59.532Z,54.04
2023-03-15T10:40:44.155Z,55.02
2023-03-15T10:43:40.702Z,56.17
2023-03-15T10:46:14.979Z,56.22
2023-03-15T10:49:17.795Z,56.58
2023-03-15T10:51:48.763Z,57.20
2023-03-15T10:54:25.983Z,57.41
2023-03-15T10:57:00.131Z,57.85
2023-03-15T10:59:31.355Z,57.52
2023-03-15T11:02:17.773Z,57.57
2023-03-15T11:05:13.310Z,58.31
2023-03-15T11:07:59.743Z,57.65
2023-03-15T11:10:34.676Z,57.33
2023-03-15T11:13:14.686Z,57.59
2023-03-15T11:15:55.109Z,58.16
2023-03-15T11:18:31.933Z,58.97
2023-03-15T11:21:03.046Z,59.00
2023-03-15T11:23:36.896Z,59.42
2023-03-15T11:26:05.950Z,60.13
2023-03-15T11:28:38.366Z,60.74
2023-03-15T11:31:07.469Z,60.30
2023-03-15T11:33:59.534Z,60.76
2023-03-15T11:36:35.312Z,61.03
2023-03-15T11:39:07.401Z,61.65
2023-03-15T11:41:38.822Z,62.15
2023-03-15T11:44:26.592Z,62.30
2023-03-15T11:47:04.914Z,63.40
2023-03-15T11:49:53.030Z,63.07
2023-03-15T11:52:24.423Z,64.35
2023-03-15T11:54:56.553Z,65.74
2023-03-15T11:57:33.674Z,66.72
2023-03-15T12:00:27.838Z,67.47
2023-03-15T12:03:02.873Z,69.21
2023-03-15T12:05:53.185Z,69.81
2023-03-15T12:08:27.999Z,71.71
2023-03-15T12:10:56.399Z,73.02
2023-03-15T12:13:29.211Z,73.12
2023-03-15T12:15:57.804Z,72.47
2023-03-15T12:18:41.292Z,72.95
2023-03-15T12:21:14.391Z,72.34
2023-03-15T12:24:02.518Z,71.69
2023-03-15T12:26:43.085Z,71.42
2023-03-15T12:29:27.153Z,69.71
2023-03-15T12:32:03.656Z,69.81
2023-03-15T12:34:56.167Z,71.16
2023-03-15T12:37:32.560Z,70.41
2023-03-15T12:40:26.825Z,71.10
2023-03-15T12:42:58.354Z,71.52
2023-03-15T12:45:37.551Z,70.98
2023-03-15T12:48:07.567Z,72.49
2023-03-15T12:50:48.942Z,72.82
2023-03-15T12:53:32.323Z,72.94
2023-03-15T12:56:20.437Z,73.04
2023-03-15T12:58:54.520Z,73.00
2023-03-15T13:01:26.633Z,73.68
2023-03-15T13:04:00.761Z,73.08
2023-03-15T13:07:04.035Z,72.30
2023-03-15T13:09:54.759Z,71.44
2023-03-15T13:12:30.770Z,71.21
2023-03-15T13:15:24.671Z,70.77
2023-03-15T13:18:05.495Z,70.86
2023-03-15T13:20:52.870Z,70.77
2023-03-15T13:23:32.870Z,70.22
2023-03-15T13:26:09.963Z,70.78
2023-03-15T13:28:43.352Z,71.18
2023-03-15T13:31:22.710Z,71.86
2023-03-15T13:33:59.125Z,73.90
2023-03-15T13:36:43.297Z,74.66
2023-03-15T13:39:27.045Z,74.47
2023-03-15T13:42:04.068Z,74.29
2023-03-15T13:44:33.203Z,75.75
2023-03-15T13:47:01.711Z,77.22
2023-03-15T13:49:34.832Z,76.62
2023-03-15T13:52:13.116Z,75.81
2023-03-15T13:54:43.190Z,75.79
2023-03-15T13:57:16.080Z,76.52
2023-03-15T14:00:03.319Z,76.51
2023-03-15T14:02:49.714Z,77.23
2023-03-15T14:05:28.657Z,76.81
2023-03-15T14:08:04.541Z,77.22
2023-03-15T14:10:41.173Z,77.22
2023-03-15T14:13:29.004Z,77.60
2023-03-15T14:16:00.346Z,77.74
2023-03-15T14:18:37.306Z,77.49
2023-03-15T14:21:17.187Z,77.22
2023-03-15T14:23:48.019Z,76.61
2023-03-15T14:26:23.790Z,75.93
2023-03-15T14:29:02.507Z,76.63
2023-03-15T14:31:35.524Z,76.79
2023-03-15T14:34:17.182Z,76.76
2023-03-15T14:36:47.071Z,77.21
2023-03-15T14:39:21.314Z,77.26
2023-03-15T14:41:49.626Z,79.07
2023-03-15T14:44:18.080Z,79.96
2023-03-15T14:46:46.408Z,78.89
2023-03-15T14:49:32.697Z,78.44
2023-03-15T14:52:04.052Z,78.34
2023-03-15T14:54:34.712Z,78.53
2023-03-15T14:57:03.025Z,77.97
2023-03-15T14:59:31.378Z,77.70
2023-03-15T15:02:01.908Z,77.99
2023-03-15T15:04:35.121Z,78.13
2023-03-15T15:07:04.066Z,78.13
2023-03-15T15:09:32.646Z,79.02
2023-03-15T15:12:00.978Z,78.86
2023-03-15T15:14:29.322Z,78.61
2023-03-15T15:16:57.883Z,78.40
2023-03-15T15:19:26.235Z,78.49
2023-03-15T15:21:54.559Z,78.27
2023-03-15T15:24:26.860Z,78.51
2023-03-15T15:26:55.723Z,79.45
2023-03-15T15:29:26.165Z,80.65
2023-03-15T15:31:54.524Z,80.90
2023-03-15T15:34:22.933Z,80.57
2023-03-15T15:36:51.284Z,80.24
2023-03-15T15:39:25.006Z,80.82
2023-03-15T15:41:53.347Z,81.50
2023-03-15T15:44:25.848Z,81.60
2023-03-15T15:46:54.624Z,82.01
2023-03-15T15:49:22.923Z,81.89
2023-03-15T15:51:51.790Z,82.70
2023-03-15T15:54:24.250Z,82.51
2023-03-15T15:56:55.528Z,82.14
2023-03-15T15:59:26.528Z,82.36
2023-03-15T16:02:01.768Z,82.89
2023-03-15T16:04:31.664Z,82.70
2023-03-15T16:07:02.970Z,82.94
2023-03-15T16:09:36.205Z,83.74
2023-03-15T16:12:12.249Z,84.41
2023-03-15T16:14:41.026Z,83.28
2023-03-15T16:17:28.121Z,82.74
2023-03-15T16:19:56.578Z,82.74
2023-03-15T16:22:26.023Z,81.70
2023-03-15T16:24:58.184Z,82.00
2023-03-15T16:27:28.747Z,81.76
2023-03-15T16:29:59.288Z,82.75
2023-03-15T16:32:41.386Z,82.62
2023-03-15T16:35:17.404Z,82.71
2023-03-15T16:37:47.413Z,83.29
2023-03-15T16:40:36.545Z,82.84
2023-03-15T16:43:07.208Z,82.34
2023-03-15T16:45:35.771Z,82.01
2023-03-15T16:48:04.733Z,80.67
2023-03-15T16:50:34.423Z,80.69
2023-03-15T16:53:06.717Z,80.84
2023-03-15T16:55:35.336Z,80.48
2023-03-15T16:58:12.310Z,81.09
2023-03-15T17:00:40.621Z,81.70
2023-03-15T17:03:08.950Z,81.53
2023-03-15T17:05:37.373Z,82.71
2023-03-15T17:08:05.861Z,84.38
2023-03-15T17:10:34.378Z,85.62
2023-03-15T17:13:03.636Z,86.63
2023-03-15T17:15:32.222Z,87.14
2023-03-15T17:18:01.343Z,87.22
2023-03-15T17:20:30.601Z,87.40
2023-03-15T17:23:04.090Z,87.81
2023-03-15T17:25:34.638Z,88.15
2023-03-15T17:28:02.985Z,88.73
2023-03-15T17:30:34.207Z,89.34
2023-03-15T17:33:03.437Z,89.53
2023-03-15T17:35:36.047Z,89.51
2023-03-15T17:38:07.610Z,89.86
2023-03-15T17:40:37.515Z,91.09
2023-03-15T17:43:06.175Z,91.54
2023-03-15T17:45:35.691Z,91.13
2023-03-15T17:48:04.180Z,91.54
2023-03-15T17:50:34.766Z,92.08
2023-03-15T17:53:22.012Z,91.72
2023-03-15T17:55:50.393Z,91.70
2023-03-15T17:58:24.637Z,91.33
2023-03-15T18:00:55.584Z,90.99
2023-03-15T18:03:25.000Z,90.89
2023-03-15T18:05:53.714Z,91.20
2023-03-15T18:08:22.569Z,91.31
2023-03-15T18:10:52.679Z,91.48
2023-03-15T18:13:22.393Z,91.14
2023-03-15T18:15:52.120Z,91.76
2023-03-15T18:18:21.146Z,91.76
2023-03-15T18:20:50.534Z,92.33
2023-03-15T18:23:19.391Z,91.93
2023-03-15T18:25:47.745Z,92.17
2023-03-15T18:28:16.372Z,92.14
2023-03-15T18:30:45.719Z,91.98
2023-03-15T18:33:16.519Z,92.32
2023-03-15T18:35:45.257Z,92.67
2023-03-15T18:38:13.579Z,92.63
2023-03-15T18:40:41.912Z,92.54
2023-03-15T18:43:15.120Z,92.64
2023-03-15T18:45:43.673Z,92.15
2023-03-15T18:48:12.006Z,91.59
2023-03-15T18:50:40.368Z,91.76
2023-03-15T18:53:09.079Z,91.50
2023-03-15T18:55:37.785Z,91.67
2023-03-15T18:58:09.851Z,91.16
2023-03-15T19:00:38.714Z,91.47
2023-03-15T19:03:07.738Z,92.25
2023-03-15T19:05:39.166Z,92.20
2023-03-15T19:08:07.763Z,92.61
2023-03-15T19:10:36.124Z,93.26
2023-03-15T19:13:04.985Z,93.31
2023-03-15T19:15:33.486Z,93.43
2023-03-15T19:18:02.549Z,93.46
2023-03-15T19:20:30.886Z,93.01
2023-03-15T19:22:59.251Z,93.08
2023-03-15T19:25:27.644Z,93.15
2023-03-15T19:27:55.975Z,93.12
2023-03-15T19:30:24.799Z,92.79
2023-03-15T19:32:53.327Z,90.58
2023-03-15T19:35:22.594Z,91.02
2023-03-15T19:37:51.389Z,90.83
2023-03-15T19:40:21.080Z,91.39
2023-03-15T19:42:52.301Z,92.78
2023-03-15T19:45:20.872Z,93.19
2023-03-15T19:47:49.269Z,93.60
2023-03-15T19:50:18.212Z,93.41
2023-03-15T19:52:49.432Z,93.24
2023-03-15T19:55:20.555Z,93.75
2023-03-15T19:57:49.361Z,92.83
2023-03-15T20:00:20.007Z,93.07
2023-03-15T20:02:48.636Z,92.66
2023-03-15T20:05:20.139Z,92.50
2023-03-15T20:07:51.546Z,92.50
2023-03-15T20:10:20.897Z,92.15
2023-03-15T20:12:49.560Z,92.12
2023-03-15T20:15:20.268Z,91.82
2023-03-15T20:17:48.592Z,90.82
2023-03-15T20:20:17.172Z,90.93
2023-03-15T20:22:46.515Z,91.27
2023-03-15T20:25:16.726Z,90.82
2023-03-15T20:27:45.390Z,91.00
2023-03-15T20:30:16.213Z,91.08
2023-03-15T20:32:45.035Z,91.93
2023-03-15T20:35:13.510Z,92.52
2023-03-15T20:37:43.284Z,92.03
2023-03-15T20:40:15.328Z,91.63
2023-03-15T20:42:44.681Z,91.62
2023-03-15T20:45:14.597Z,91.66
2023-03-15T20:47:43.282Z,91.12
2023-03-15T20:50:14.064Z,90.39
2023-03-15T20:52:43.645Z,90.98
2023-03-15T20:55:16.144Z,91.69
2023-03-15T20:57:44.780Z,92.69
2023-03-15T21:00:19.039Z,90.57
2023-03-15T21:02:48.872Z,85.04
2023-03-15T21:05:18.260Z,91.16
2023-03-15T21:07:47.166Z,89.57
2023-03-15T21:10:15.747Z,91.84
2023-03-15T21:12:47.300Z,91.88
2023-03-15T21:15:19.810Z,92.42
2023-03-15T21:17:53.921Z,92.45
2023-03-15T21:20:22.349Z,92.99
2023-03-15T21:22:50.723Z,93.65
2023-03-15T21:25:19.198Z,93.51
2023-03-15T21:27:47.844Z,93.70
2023-03-15T21:30:16.315Z,93.63
2023-03-15T21:32:45.623Z,94.04
2023-03-15T21:35:14.844Z,94.55
2023-03-15T21:37:43.124Z,94.59
2023-03-15T21:40:14.028Z,95.37
2023-03-15T21:42:44.435Z,95.76
2023-03-15T21:45:13.226Z,95.89
2023-03-15T21:47:41.707Z,95.96
2023-03-15T21:50:12.626Z,95.97
2023-03-15T21:52:41.005Z,95.96
2023-03-15T21:55:10.339Z,95.34
2023-03-15T21:57:38.697Z,95.59
2023-03-15T22:00:12.613Z,95.55
2023-03-15T22:02:41.058Z,94.99
2023-03-15T22:05:10.488Z,95.89
2023-03-15T22:07:39.551Z,96.13
2023-03-15T22:10:10.649Z,95.59
2023-03-15T22:12:39.638Z,95.79
2023-03-15T22:15:08.627Z,95.81
2023-03-15T22:17:37.648Z,95.90
2023-03-15T22:20:19.320Z,95.74
2023-03-15T22:22:50.007Z,95.75
2023-03-15T22:25:18.728Z,95.31
2023-03-15T22:27:47.042Z,95.24
2023-03-15T22:30:16.300Z,95.19
2023-03-15T22:32:45.172Z,95.57
2023-03-15T22:35:15.115Z,94.36
2023-03-15T22:37:44.082Z,94.43
2023-03-15T22:40:17.713Z,94.36
2023-03-15T22:42:47.920Z,94.77
2023-03-15T22:45:16.483Z,94.66
2023-03-15T22:47:44.985Z,95.03
2023-03-15T22:50:14.407Z,94.83
2023-03-15T22:52:43.097Z,94.06
2023-03-15T22:55:12.556Z,94.09
2023-03-15T22:57:41.294Z,93.59
2023-03-15T23:00:14.699Z,93.19
2023-03-15T23:02:46.747Z,93.15
2023-03-15T23:05:15.601Z,92.56
2023-03-15T23:07:44.245Z,92.35
2023-03-15T23:10:13.368Z,91.73
2023-03-15T23:12:42.088Z,91.26
2023-03-15T23:15:11.328Z,90.81
2023-03-15T23:17:39.728Z,90.73
2023-03-15T23:20:08.700Z,90.93
2023-03-15T23:22:37.001Z,91.26
2023-03-15T23:25:05.613Z,89.42
2023-03-15T23:27:33.994Z,90.62
2023-03-15T23:30:02.354Z,91.75
2023-03-15T23:32:32.025Z,92.53
2023-03-15T23:35:00.319Z,92.58
2023-03-15T23:37:29.542Z,92.88
2023-03-15T23:39:57.907Z,92.36
2023-03-15T23:42:26.573Z,92.41
2023-03-15T23:44:56.293Z,92.25
2023-03-15T23:47:25.906Z,93.09
2023-03-15T23:49:54.199Z,92.89
2023-03-15T23:52:25.689Z,92.99
2023-03-15T23:54:54.836Z,92.75
2023-03-15T23:57:23.387Z,92.76
2023-03-15T23:59:52.010Z,92.92
